Time;durP1;ratioP1;P1;durP2;ratioP2;P2;SDS_P1;SDS_P2;PMS_P1;PMS_P2;Temp;Humidity;BMP_temperature;BMP_pressure;BME280_temperature;BME280_humidity;BME280_pressure;Samples;Min_cycle;Max_cycle;Signal;HPM_P1;HPM_P2
2022/04/05 00:02:44;;;;;;;8.32;1.10;;;7.50;99.90;;;;;;4747132;30;20048;-87
2022/04/05 00:06:04;;;;;;;5.63;0.70;;;7.60;99.90;;;;;;4698065;30;20073;-87
2022/04/05 00:13:12;;;;;;;7.00;0.85;;;8.10;99.90;;;;;;4696892;30;20076;-87
2022/04/05 00:20:27;;;;;;;8.93;1.30;;;7.40;99.90;;;;;;4679077;30;20380;-86
2022/04/05 00:23:25;;;;;;;15.70;1.35;;;7.50;99.90;;;;;;4679506;30;20133;-86
2022/04/05 00:26:36;;;;;;;11.00;1.35;;;7.40;99.90;;;;;;4656431;30;20175;-86
2022/04/05 00:29:55;;;;;;;9.50;0.85;;;7.30;99.90;;;;;;4682850;30;20124;-87
2022/04/05 00:32:25;;;;;;;13.02;1.33;;;7.50;99.90;;;;;;4667725;30;20058;-87
2022/04/05 00:35:46;;;;;;;;;;;;;;;;;;;;;
2022/04/05 00:42:49;;;;;;;11.52;1.40;;;7.90;99.90;;;;;;4680479;30;20088;-86
2022/04/05 00:46:02;;;;;;;10.00;1.08;;;7.20;99.90;;;;;;4676642;30;20054;-86
2022/04/05 00:49:37;;;;;;;13.80;1.20;;;7.30;99.90;;;;;;4669854;30;20578;-86
2022/04/05 00:52:51;;;;;;;17.58;1.77;;;7.30;99.90;;;;;;4682668;30;20136;-86
2022/04/05 00:56:13;;;;;;;11.85;1.25;;;7.00;99.90;;;;;;4734833;30;20657;-87
2022/04/05 00:59:44;;;;;;;;;;;;;;;;;;;;;
2022/04/05 01:03:13;;;;;;;;;;;;;;;;;;;;;
2022/04/05 01:10:06;;;;;;;8.80;1.00;;;8.10;99.90;;;;;;4718820;30;20057;-86
2022/04/05 01:13:34;;;;;;;;;;;;;;;;;;;;;
2022/04/05 01:17:03;;;;;;;11.65;0.98;;;7.20;99.90;;;;;;4732745;30;20510;-86
2022/04/05 01:20:02;;;;;;;11.27;1.08;;;7.20;99.90;;;;;;4734593;30;20083;-87
2022/04/05 01:23:39;;;;;;;;;;;;;;;;;;;;;
2022/04/05 01:27:04;;;;;;;;;;;;;;;;;;;;;
2022/04/05 01:30:13;;;;;;;4.55;0.77;;;7.10;99.90;;;;;;4717880;30;20068;-86
2022/04/05 01:33:12;;;;;;;7.47;1.13;;;6.90;99.90;;;;;;4734622;30;20443;-86
2022/04/05 01:36:11;;;;;;;7.47;0.80;;;6.60;99.90;;;;;;4728876;30;20856;-86
2022/04/05 01:39:06;;;;;;;9.45;0.93;;;7.00;99.90;;;;;;4719029;30;20473;-86
2022/04/05 01:46:07;;;;;;;14.50;0.93;;;7.00;99.90;;;;;;4706051;30;20468;-86
2022/04/05 01:53:02;;;;;;;;;;;;;;;;;;;;;
2022/04/05 01:56:23;;;;;;;11.13;1.35;;;6.80;99.90;;;;;;4643542;30;20086;-86
2022/04/05 02:00:04;;;;;;;;;;;;;;;;;;;;;
2022/04/05 02:03:05;;;;;;;10.27;0.93;;;6.90;99.90;;;;;;4597355;31;20191;-86
2022/04/05 02:06:31;;;;;;;11.50;1.17;;;7.50;99.90;;;;;;4597008;31;20078;-86
2022/04/05 02:13:25;;;;;;;8.55;0.88;;;7.10;99.90;;;;;;4586121;31;20509;-85
2022/04/05 02:16:25;;;;;;;8.05;0.70;;;6.50;99.90;;;;;;4569799;31;20057;-86
2022/04/05 02:19:27;;;;;;;4.80;1.08;;;7.10;99.90;;;;;;4580480;31;20143;-86
2022/04/05 02:22:31;;;;;;;3.80;0.52;;;6.60;99.90;;;;;;4575976;31;20525;-85
2022/04/05 02:29:30;;;;;;;5.88;0.70;;;5.70;99.90;;;;;;4587706;31;20086;-86
2022/04/05 02:32:38;;;;;;;8.63;1.10;;;6.50;99.90;;;;;;4565015;31;20076;-86
2022/04/05 02:35:35;;;;;;;7.97;1.23;;;7.10;99.90;;;;;;4588553;31;20051;-86
2022/04/05 02:38:52;;;;;;;;;;;;;;;;;;;;;
2022/04/05 02:41:54;;;;;;;5.10;0.50;;;6.30;99.90;;;;;;4617127;31;20052;-86
2022/04/05 02:45:10;;;;;;;5.63;0.70;;;6.30;99.90;;;;;;4666157;30;20073;-86
2022/04/05 02:48:35;;;;;;;11.13;0.82;;;6.90;99.90;;;;;;4671097;30;20129;-86
2022/04/05 02:51:43;;;;;;;5.15;0.68;;;6.30;99.90;;;;;;4680745;30;20192;-86
2022/04/05 02:54:54;;;;;;;7.57;0.95;;;6.30;99.90;;;;;;4690746;30;20428;-86
2022/04/05 02:58:15;;;;;;;5.32;1.05;;;6.20;99.90;;;;;;4687822;30;20064;-86
2022/04/05 03:01:36;;;;;;;;;;;;;;;;;;;;;
2022/04/05 03:04:41;;;;;;;4.88;0.43;;;6.10;99.90;;;;;;4690566;30;20058;-86
2022/04/05 03:11:21;;;;;;;0.95;0.40;;;6.10;99.90;;;;;;4749189;30;20082;-86
2022/04/05 03:14:50;;;;;;;4.47;0.55;;;6.00;99.90;;;;;;4750925;30;20135;-86
2022/04/05 03:17:45;;;;;;;4.95;0.60;;;6.70;99.90;;;;;;4750721;30;20059;-86
2022/04/05 03:20:44;;;;;;;7.68;0.90;;;6.00;99.90;;;;;;4734726;30;20118;-86
2022/04/05 03:23:59;;;;;;;;;;;;;;;;;;;;;
2022/04/05 03:27:24;;;;;;;;;;;;;;;;;;;;;
2022/04/05 03:37:42;;;;;;;9.50;1.08;;;6.00;99.90;;;;;;4767445;30;20101;-86
2022/04/05 03:40:49;;;;;;;;;;;;;;;;;;;;;
2022/04/05 03:44:17;;;;;;;;;;;;;;;;;;;;;
2022/04/05 03:47:30;;;;;;;;;;;;;;;;;;;;;
2022/04/05 03:50:26;;;;;;;5.72;0.80;;;5.90;99.90;;;;;;4755087;30;20060;-86
2022/04/05 03:53:54;;;;;;;;;;;;;;;;;;;;;
2022/04/05 03:57:22;;;;;;;12.73;0.80;;;6.00;99.90;;;;;;4766856;30;20058;-86
2022/04/05 04:05:00;;;;;;;;;;;;;;;;;;;;;
2022/04/05 04:08:39;;;;;;;4.88;0.75;;;6.00;99.90;;;;;;4748714;30;20066;-86
2022/04/05 04:16:55;;;;;;;;;;;;;;;;;;;;;
2022/04/05 04:20:25;;;;;;;4.32;0.30;;;6.10;99.90;;;;;;4714536;30;20132;-87
2022/04/05 04:24:10;;;;;;;2.30;0.60;;;5.80;99.90;;;;;;4715088;30;20453;-86
2022/04/05 04:27:11;;;;;;;;;;;5.90;99.90;;;;;;4716092;30;20049;-86
2022/04/05 04:30:52;;;;;;;2.72;0.50;;;5.80;99.90;;;;;;4709811;30;19930;-87
2022/04/05 04:34:12;;;;;;;3.35;0.30;;;5.80;99.90;;;;;;4715695;30;20067;-87
2022/04/05 04:41:22;;;;;;;3.28;0.40;;;6.50;99.90;;;;;;4748449;30;20066;-86
2022/04/05 04:48:27;;;;;;;;;;;;;;;;;;;;;
2022/04/05 04:51:43;;;;;;;1.30;0.30;;;5.70;99.90;;;;;;4713806;30;20053;-86
2022/04/05 04:54:54;;;;;;;2.95;0.38;;;6.10;99.90;;;;;;4711360;30;20104;-86
2022/04/05 04:58:15;;;;;;;4.43;0.50;;;5.40;99.90;;;;;;4698933;30;20057;-86
2022/04/05 05:05:23;;;;;;;4.10;0.40;;;5.30;99.90;;;;;;4661755;30;20141;-86
2022/04/05 05:08:35;;;;;;;3.35;0.30;;;5.40;99.90;;;;;;4658922;30;20054;-86
2022/04/05 05:11:31;;;;;;;2.38;0.40;;;6.10;99.90;;;;;;4664828;30;20075;-87
2022/04/05 05:14:51;;;;;;;;;;;;;;;;;;;;;
2022/04/05 05:17:55;;;;;;;1.50;0.40;;;5.80;99.90;;;;;;4682620;30;20513;-86
2022/04/05 05:20:59;;;;;;;1.95;1.05;;;5.70;99.90;;;;;;4668037;30;20058;-86
2022/04/05 05:27:41;;;;;;;6.85;0.50;;;5.40;99.90;;;;;;4701851;30;20165;-86
2022/04/05 05:30:40;;;;;;;;;;;;;;;;;;;;;
2022/04/05 05:33:48;;;;;;;1.08;0.38;;;5.70;99.90;;;;;;4700641;30;20424;-86
2022/04/05 05:36:39;;;;;;;2.13;0.50;;;5.80;99.90;;;;;;4686624;30;20050;-86
2022/04/05 05:39:31;;;;;;;2.22;0.50;;;6.10;99.90;;;;;;4736436;30;20060;-86
2022/04/05 05:42:23;;;;;;;1.30;0.40;;;5.80;99.90;;;;;;4753910;30;20044;-86
2022/04/05 05:45:31;;;;;;;3.95;0.40;;;5.80;99.90;;;;;;4754308;30;20059;-86
2022/04/05 05:48:26;;;;;;;2.28;0.40;;;5.90;99.90;;;;;;4745636;30;20382;-85
2022/04/05 05:51:36;;;;;;;0.85;0.30;;;5.80;99.90;;;;;;4736652;30;20051;-86
2022/04/05 05:54:33;;;;;;;5.53;0.60;;;5.90;99.90;;;;;;4737528;30;20051;-86
2022/04/05 05:57:38;;;;;;;3.10;0.70;;;6.10;99.90;;;;;;4732410;30;20501;-87
2022/04/05 06:00:44;;;;;;;3.00;0.50;;;6.00;99.90;;;;;;4753257;30;20052;-86
2022/04/05 06:03:59;;;;;;;;;;;;;;;;;;;;;
2022/04/05 06:07:41;;;;;;;7.63;0.60;;;6.10;99.90;;;;;;4715819;30;20423;-85
2022/04/05 06:10:37;;;;;;;4.25;0.60;;;6.10;99.90;;;;;;4713477;30;20114;-87
2022/04/05 06:13:36;;;;;;;5.55;0.68;;;6.10;99.90;;;;;;4701697;30;20057;-85
2022/04/05 06:16:38;;;;;;;3.17;0.45;;;6.20;99.90;;;;;;4700057;30;20594;-86
2022/04/05 06:19:35;;;;;;;;;;;;;;;;;;;;;
2022/04/05 06:22:43;;;;;;;2.05;0.45;;;6.30;99.90;;;;;;4701247;30;20473;-88
2022/04/05 06:25:47;;;;;;;2.80;0.50;;;6.30;99.90;;;;;;4700773;30;20475;-88
2022/04/05 06:28:57;;;;;;;;;;;;;;;;;;;;;
2022/04/05 06:31:41;;;;;;;10.23;0.80;;;6.40;99.90;;;;;;4696858;30;20057;-84
2022/04/05 06:34:52;;;;;;;;;;;;;;;;;;;;;
2022/04/05 06:37:56;;;;;;;;;;;;;;;;;;;;;
2022/04/05 06:41:07;;;;;;;1.70;0.40;;;6.50;99.90;;;;;;4752859;30;20055;-85
2022/04/05 06:44:10;;;;;;;;;;;;;;;;;;;;;
2022/04/05 06:47:11;;;;;;;4.70;0.85;;;6.60;99.90;;;;;;4750289;30;20096;-84
2022/04/05 06:50:03;;;;;;;4.75;0.73;;;6.60;99.90;;;;;;4750330;30;20056;-86
2022/04/05 06:52:50;;;;;;;4.20;0.65;;;6.70;99.90;;;;;;4749100;30;20127;-92
2022/04/05 06:55:36;;;;;;;3.15;0.52;;;6.70;99.90;;;;;;4744755;30;20066;-88
2022/04/05 06:58:32;;;;;;;2.90;0.50;;;6.80;99.90;;;;;;4736090;30;20060;-87
2022/04/05 07:01:38;;;;;;;;;;;;;;;;;;;;;
2022/04/05 07:04:36;;;;;;;1.65;0.30;;;6.80;99.90;;;;;;4750026;30;20050;-86
2022/04/05 07:07:42;;;;;;;;;;;;;;;;;;;;;
2022/04/05 07:18:37;;;;;;;4.25;0.50;;;7.20;99.90;;;;;;4750098;30;20043;-88
2022/04/05 07:21:42;;;;;;;5.22;0.35;;;7.20;99.90;;;;;;4747489;30;20147;-88
2022/04/05 07:24:38;;;;;;;5.65;0.70;;;7.40;99.90;;;;;;4749749;30;20176;-85
2022/04/05 07:27:44;;;;;;;3.58;0.50;;;7.20;99.90;;;;;;4697821;30;20128;-86
2022/04/05 07:30:42;;;;;;;14.93;0.95;;;7.40;99.90;;;;;;4697906;30;20759;-88
2022/04/05 07:33:59;;;;;;;3.60;0.65;;;7.30;99.90;;;;;;4663382;30;20150;-84
2022/04/05 07:37:21;;;;;;;3.30;0.43;;;7.40;99.90;;;;;;4657569;30;20049;-86
2022/04/05 07:44:04;;;;;;;2.33;0.32;;;7.40;99.90;;;;;;4663025;30;20056;-84
2022/04/05 07:47:08;;;;;;;7.38;0.63;;;7.50;99.90;;;;;;4656076;30;20502;-84
2022/04/05 07:50:05;;;;;;;3.05;0.70;;;7.50;99.90;;;;;;4625944;30;20100;-85
2022/04/05 07:53:06;;;;;;;4.05;0.73;;;7.50;99.90;;;;;;4648337;30;20050;-84
2022/04/05 07:56:04;;;;;;;0.98;0.40;;;7.50;99.90;;;;;;4656867;30;20062;-85
2022/04/05 07:59:07;;;;;;;0.50;0.40;;;7.50;99.90;;;;;;4645415;30;20533;-85
2022/04/05 08:02:13;;;;;;;3.60;0.82;;;7.60;99.90;;;;;;4627464;30;20164;-85
2022/04/05 08:05:10;;;;;;;7.25;0.68;;;7.60;99.90;;;;;;4628587;30;20081;-85
2022/04/05 08:08:10;;;;;;;7.90;0.80;;;7.70;99.90;;;;;;4656491;30;20092;-85
2022/04/05 08:11:11;;;;;;;4.30;0.57;;;7.70;99.90;;;;;;4690298;30;20060;-86
2022/04/05 08:14:07;;;;;;;4.88;0.40;;;7.20;99.90;;;;;;4743661;30;20044;-84
2022/04/05 08:17:12;;;;;;;4.05;0.82;;;7.80;99.90;;;;;;4751185;30;20052;-84
2022/04/05 08:20:11;;;;;;;3.00;0.68;;;7.80;99.90;;;;;;4745535;30;20141;-84
2022/04/05 08:23:11;;;;;;;5.35;1.02;;;7.80;99.90;;;;;;4735160;30;20494;-84
2022/04/05 08:33:20;;;;;;;2.88;0.43;;;7.90;99.90;;;;;;4746783;30;20050;-84
2022/04/05 08:36:13;;;;;;;3.35;0.38;;;7.90;99.90;;;;;;4746815;30;20064;-84
2022/04/05 08:39:13;;;;;;;3.67;0.70;;;8.00;99.90;;;;;;4751117;30;20135;-84
2022/04/05 08:42:14;;;;;;;3.13;0.60;;;8.20;99.90;;;;;;4734560;30;20061;-84
2022/04/05 08:45:27;;;;;;;4.80;0.60;;;8.30;99.90;;;;;;4751239;30;20059;-87
2022/04/05 08:48:36;;;;;;;;;;;;;;;;;;;;;
2022/04/05 08:51:46;;;;;;;4.50;0.70;;;8.50;99.90;;;;;;4731675;30;20052;-83
2022/04/05 08:54:39;;;;;;;3.92;0.50;;;8.50;99.90;;;;;;4754698;30;20059;-82
2022/04/05 08:57:50;;;;;;;;;;;;;;;;;;;;;
2022/04/05 09:01:00;;;;;;;;;;;;;;;;;;;;;
2022/04/05 09:04:10;;;;;;;1.90;0.50;;;8.60;99.90;;;;;;4753689;30;20592;-81
2022/04/05 09:07:31;;;;;;;4.55;1.08;;;8.70;99.90;;;;;;4748407;30;20063;-85
2022/04/05 09:10:25;;;;;;;;;;;9.20;99.90;;;;;;4730380;30;20057;-85
2022/04/05 09:13:34;;;;;;;1.95;0.60;;;8.70;99.90;;;;;;4754613;30;20013;-82
2022/04/05 09:16:38;;;;;;;;;;;;;;;;;;;;;
2022/04/05 09:19:51;;;;;;;5.25;0.68;;;8.70;99.90;;;;;;4751173;30;20102;-86
2022/04/05 09:23:02;;;;;;;;;;;;;;;;;;;;;
2022/04/05 09:26:26;;;;;;;;;;;;;;;;;;;;;
2022/04/05 09:29:12;;;;;;;5.93;0.93;;;8.50;99.90;;;;;;4751546;30;20052;-83
2022/04/05 09:31:48;;;;;;;2.65;0.90;;;8.30;99.90;;;;;;4759775;30;20139;-82
2022/04/05 09:34:21;;;;;;;;;;;8.80;99.90;;;;;;4754139;30;20052;-83
2022/04/05 09:36:49;;;;;;;1.73;0.80;;;8.80;99.90;;;;;;4752965;30;19937;-83
2022/04/05 09:39:37;;;;;;;;;;;;;;;;;;;;;
2022/04/05 09:42:22;;;;;;;4.10;0.90;;;8.20;99.90;;;;;;4748441;30;20072;-84
2022/04/05 09:44:58;;;;;;;4.05;1.23;;;8.40;99.90;;;;;;4752832;30;20044;-83
2022/04/05 09:47:29;;;;;;;5.85;1.52;;;8.20;99.90;;;;;;4754189;30;20060;-84
2022/04/05 09:50:04;;;;;;;11.35;1.23;;;8.60;99.90;;;;;;4736593;30;20056;-84
2022/04/05 09:53:05;;;;;;;2.55;0.68;;;8.30;99.90;;;;;;4753575;30;20044;-83
2022/04/05 09:55:44;;;;;;;5.07;0.60;;;8.60;99.90;;;;;;4732052;30;20052;-83
2022/04/05 09:58:21;;;;;;;3.25;0.60;;;8.40;99.90;;;;;;4753449;30;20125;-85
2022/04/05 10:01:11;;;;;;;6.95;0.93;;;8.40;99.90;;;;;;4753505;30;20076;-84
2022/04/05 10:03:56;;;;;;;4.75;0.68;;;8.30;99.90;;;;;;4738046;30;20082;-85
2022/04/05 10:06:23;;;;;;;2.05;0.40;;;8.30;99.90;;;;;;4752310;30;20091;-84
2022/04/05 10:09:00;;;;;;;2.92;0.50;;;8.30;99.90;;;;;;4752634;30;20077;-84
2022/04/05 10:11:50;;;;;;;3.72;0.90;;;8.80;99.90;;;;;;4751912;30;20130;-83
2022/04/05 10:17:56;;;;;;;6.18;0.50;;;8.50;99.90;;;;;;4751477;30;20055;-85
2022/04/05 10:21:11;;;;;;;2.67;0.50;;;8.40;99.90;;;;;;4753380;30;20052;-85
2022/04/05 10:24:18;;;;;;;2.67;0.35;;;8.50;99.90;;;;;;4750921;30;20075;-85
2022/04/05 10:27:17;;;;;;;0.73;0.50;;;8.50;99.90;;;;;;4753079;30;20052;-84
2022/04/05 10:30:40;;;;;;;4.70;0.70;;;8.60;99.90;;;;;;4750881;30;20522;-82
2022/04/05 10:34:04;;;;;;;;;;;;;;;;;;;;;
2022/04/05 10:37:16;;;;;;;6.38;0.80;;;8.60;99.90;;;;;;4751851;30;20060;-82
2022/04/05 10:40:19;;;;;;;4.80;0.50;;;8.90;99.90;;;;;;4732745;30;20056;-82
2022/04/05 10:43:23;;;;;;;2.58;0.60;;;8.60;99.90;;;;;;4736707;30;20479;-83
2022/04/05 10:46:52;;;;;;;2.40;0.60;;;8.50;99.90;;;;;;4746150;30;20050;-83
2022/04/05 10:50:24;;;;;;;3.38;0.50;;;8.50;99.90;;;;;;4752448;30;20052;-83
2022/04/05 10:53:21;;;;;;;4.05;0.50;;;8.60;99.90;;;;;;4746398;30;20052;-83
2022/04/05 10:56:10;;;;;;;2.15;0.68;;;8.50;99.90;;;;;;4751093;30;20091;-83
2022/04/05 10:59:10;;;;;;;2.78;0.52;;;8.60;99.90;;;;;;4734263;30;20106;-83
2022/04/05 11:02:36;;;;;;;;;;;;;;;;;;;;;
2022/04/05 11:05:55;;;;;;;3.55;0.40;;;8.90;99.90;;;;;;4735874;30;20059;-84
2022/04/05 11:08:50;;;;;;;2.28;0.50;;;9.00;99.90;;;;;;4736010;30;20439;-83
2022/04/05 11:11:29;;;;;;;1.23;0.50;;;8.80;99.90;;;;;;4743424;30;20052;-82
2022/04/05 11:14:53;;;;;;;2.17;0.65;;;8.80;99.90;;;;;;4750366;30;20064;-87
2022/04/05 11:17:30;;;;;;;1.60;0.50;;;8.80;99.90;;;;;;4717059;30;20059;-82
2022/04/05 11:19:59;;;;;;;1.67;0.70;;;8.50;99.90;;;;;;4726839;30;20048;-86
2022/04/05 11:22:32;;;;;;;2.88;1.52;;;8.80;99.90;;;;;;4751845;30;20044;-83
2022/04/05 11:25:25;;;;;;;1.85;0.70;;;9.00;99.90;;;;;;4750380;30;20040;-85
2022/04/05 11:27:55;;;;;;;2.45;0.60;;;9.00;99.90;;;;;;4733626;30;20059;-84
2022/04/05 11:30:26;;;;;;;3.33;0.60;;;9.00;99.90;;;;;;4735957;30;20052;-84
2022/04/05 11:33:21;;;;;;;2.22;0.40;;;9.00;99.90;;;;;;4751821;30;20052;-84
2022/04/05 11:35:49;;;;;;;0.75;0.50;;;9.00;99.90;;;;;;4734514;30;20445;-84
2022/04/05 11:38:18;;;;;;;1.20;0.63;;;9.20;99.90;;;;;;4751385;30;20051;-84
2022/04/05 11:40:51;;;;;;;1.33;0.40;;;8.50;99.90;;;;;;4751281;30;20498;-84
2022/04/05 11:43:25;;;;;;;1.80;0.95;;;9.20;99.90;;;;;;4735682;30;20466;-84
2022/04/05 11:46:11;;;;;;;1.80;0.40;;;9.20;99.90;;;;;;4750890;30;20060;-84
2022/04/05 11:48:49;;;;;;;0.52;0.30;;;9.30;99.90;;;;;;4750380;30;20056;-83
2022/04/05 11:51:25;;;;;;;0.88;0.40;;;9.30;99.90;;;;;;4737090;30;20055;-83
2022/04/05 11:54:04;;;;;;;1.30;0.55;;;9.30;99.90;;;;;;4736046;30;20134;-83
2022/04/05 11:56:34;;;;;;;1.45;0.60;;;9.30;99.90;;;;;;4750533;30;20048;-83
2022/04/05 11:59:07;;;;;;;1.27;0.50;;;9.30;99.90;;;;;;4750652;30;20106;-84
2022/04/05 12:01:40;;;;;;;0.93;0.40;;;9.20;99.90;;;;;;4751402;30;20158;-84
2022/04/05 12:04:13;;;;;;;2.35;0.40;;;9.20;99.90;;;;;;4750911;30;20056;-83
2022/04/05 12:06:45;;;;;;;0.75;0.30;;;9.40;99.90;;;;;;4751284;30;20051;-83
2022/04/05 12:09:17;;;;;;;0.82;0.40;;;9.70;99.90;;;;;;4751114;30;20074;-83
2022/04/05 12:11:50;;;;;;;0.45;0.30;;;9.50;99.90;;;;;;4749051;30;20079;-83
2022/04/05 12:14:24;;;;;;;0.95;0.50;;;9.60;99.90;;;;;;4734151;30;20063;-83
2022/04/05 12:16:54;;;;;;;1.85;0.50;;;9.60;99.90;;;;;;4751481;30;20048;-83
2022/04/05 12:19:38;;;;;;;2.05;0.88;;;9.70;99.90;;;;;;4750561;30;20067;-83
2022/04/05 12:22:07;;;;;;;1.80;0.50;;;9.80;99.90;;;;;;4751467;30;20097;-83
2022/04/05 12:24:54;;;;;;;1.98;0.70;;;9.80;99.90;;;;;;4750934;30;20056;-83
2022/04/05 12:27:39;;;;;;;1.23;0.95;;;10.00;99.90;;;;;;4750818;30;20114;-85
2022/04/05 12:30:11;;;;;;;3.10;0.80;;;10.00;99.90;;;;;;4749676;30;20135;-83
2022/04/05 12:32:39;;;;;;;1.08;0.77;;;10.10;99.90;;;;;;4751620;30;20059;-84
2022/04/05 12:35:09;;;;;;;2.03;0.88;;;10.00;99.90;;;;;;4751139;30;20079;-83
2022/04/05 12:37:38;;;;;;;1.23;0.90;;;10.10;99.90;;;;;;4736167;30;20056;-84
2022/04/05 12:40:23;;;;;;;2.08;0.80;;;9.80;99.90;;;;;;4751726;30;20101;-84
2022/04/05 12:43:24;;;;;;;1.73;0.80;;;10.10;99.90;;;;;;4751671;30;20048;-84
2022/04/05 12:46:07;;;;;;;1.77;0.70;;;10.10;99.90;;;;;;4749917;30;20155;-84
2022/04/05 12:48:50;;;;;;;1.30;0.70;;;10.10;99.90;;;;;;4748383;30;20114;-83
2022/04/05 12:51:57;;;;;;;;;;;;;;;;;;;;;
2022/04/05 12:55:15;;;;;;;;;;;;;;;;;;;;;
2022/04/05 13:21:21;;;;;;;1.30;0.70;;;10.30;99.90;;;;;;4748757;30;21274;-84
2022/04/05 13:24:32;;;;;;;0.85;0.60;;;10.20;99.90;;;;;;4751476;30;20088;-85
2022/04/05 13:27:34;;;;;;;0.93;0.65;;;10.50;99.90;;;;;;4720329;30;20122;-85
2022/04/05 13:30:41;;;;;;;1.52;0.70;;;10.30;99.90;;;;;;4751324;30;20056;-84
2022/04/05 13:33:39;;;;;;;1.67;0.90;;;10.20;99.90;;;;;;4735287;30;20151;-85
2022/04/05 13:36:38;;;;;;;1.92;0.90;;;10.20;99.90;;;;;;4754433;30;20056;-85
2022/04/05 13:39:33;;;;;;;;;;;;;;;;;;;;;
2022/04/05 13:42:39;;;;;;;1.92;1.00;;;10.40;99.90;;;;;;4737070;30;20061;-85
2022/04/05 13:45:37;;;;;;;;;;;;;;;;;;;;;
2022/04/05 13:49:16;;;;;;;;;;;;;;;;;;;;;
2022/04/05 13:52:01;;;;;;;1.73;0.82;;;9.80;99.90;;;;;;4712450;30;20057;-85
2022/04/05 14:02:35;;;;;;;;;;;;;;;;;;;;;
2022/04/05 14:05:53;;;;;;;4.30;1.90;;;9.90;99.90;;;;;;4734483;30;20122;-85
2022/04/05 14:08:57;;;;;;;4.65;2.00;;;9.90;99.90;;;;;;4734505;30;20562;-85
2022/04/05 14:11:50;;;;;;;4.45;1.67;;;9.70;99.90;;;;;;4725283;30;20121;-87
2022/04/05 14:14:41;;;;;;;6.25;2.65;;;9.80;99.90;;;;;;4715790;30;20072;-85
2022/04/05 14:17:48;;;;;;;8.70;2.40;;;9.80;99.90;;;;;;4718161;30;20093;-85
2022/04/05 14:20:50;;;;;;;9.70;4.10;;;9.80;99.90;;;;;;4734208;30;20140;-84
2022/04/05 14:23:35;;;;;;;12.45;3.70;;;9.90;99.90;;;;;;4733456;30;20063;-84
2022/04/05 14:26:28;;;;;;;10.40;3.38;;;9.90;99.90;;;;;;4718829;30;20137;-85
2022/04/05 14:28:58;;;;;;;9.63;4.18;;;9.90;99.90;;;;;;4713309;30;20091;-86
2022/04/05 14:31:27;;;;;;;11.82;3.30;;;9.80;99.90;;;;;;4735970;30;20533;-87
2022/04/05 14:33:53;;;;;;;13.63;3.42;;;9.90;99.90;;;;;;4720091;30;20041;-83
2022/04/05 14:36:26;;;;;;;9.57;3.00;;;9.90;99.90;;;;;;4734798;30;20088;-84
2022/04/05 14:38:55;;;;;;;8.52;3.40;;;9.90;99.90;;;;;;4735402;30;20052;-84
2022/04/05 14:41:31;;;;;;;6.47;3.08;;;9.90;99.90;;;;;;4719823;30;20526;-85
2022/04/05 14:44:11;;;;;;;9.38;3.42;;;9.80;99.90;;;;;;4734323;30;20061;-84
2022/04/05 14:46:48;;;;;;;6.50;2.95;;;9.90;99.90;;;;;;4719971;30;20064;-85
2022/04/05 14:49:33;;;;;;;7.00;3.08;;;9.90;99.90;;;;;;4735278;30;20056;-84
2022/04/05 14:52:04;;;;;;;7.97;3.92;;;9.90;99.90;;;;;;4735688;30;20055;-85
2022/04/05 14:54:35;;;;;;;9.38;3.05;;;10.00;99.90;;;;;;4735530;30;20085;-83
2022/04/05 14:57:06;;;;;;;11.73;3.47;;;10.00;99.90;;;;;;4719641;30;20060;-84
2022/04/05 14:59:38;;;;;;;8.88;3.10;;;9.90;99.90;;;;;;4719445;30;20055;-84
2022/04/05 15:02:22;;;;;;;8.45;2.67;;;9.90;99.90;;;;;;4735088;30;20250;-84
2022/04/05 15:04:58;;;;;;;14.57;4.25;;;9.80;99.90;;;;;;4719517;30;20049;-84
2022/04/05 15:07:37;;;;;;;8.50;3.57;;;9.50;99.90;;;;;;4735388;30;20052;-84
2022/04/05 15:10:05;;;;;;;12.10;3.42;;;10.10;99.90;;;;;;4718562;30;20084;-85
2022/04/05 15:12:38;;;;;;;9.60;3.58;;;9.90;99.90;;;;;;4734749;30;20053;-85
2022/04/05 15:15:13;;;;;;;10.20;2.83;;;9.90;99.90;;;;;;4734589;30;20116;-86
2022/04/05 15:17:45;;;;;;;7.63;2.78;;;10.00;99.90;;;;;;4735092;30;20110;-87
2022/04/05 15:20:21;;;;;;;6.60;2.97;;;9.90;99.90;;;;;;4733852;30;20053;-84
2022/04/05 15:22:52;;;;;;;10.60;3.10;;;9.90;99.90;;;;;;4728784;30;20209;-85
2022/04/05 15:25:25;;;;;;;8.98;3.75;;;9.80;99.90;;;;;;4751439;30;20126;-83
2022/04/05 15:27:57;;;;;;;14.68;4.07;;;10.00;99.90;;;;;;4752263;30;20406;-85
2022/04/05 15:30:28;;;;;;;10.27;3.78;;;10.00;99.90;;;;;;4751433;30;20058;-85
2022/04/05 15:33:01;;;;;;;9.90;3.40;;;9.70;99.90;;;;;;4752390;30;20040;-87
2022/04/05 15:35:33;;;;;;;11.15;3.15;;;10.00;99.90;;;;;;4752054;30;20051;-84
2022/04/05 15:38:05;;;;;;;8.93;3.08;;;9.90;99.90;;;;;;4752234;30;20040;-84
2022/04/05 15:40:43;;;;;;;10.35;2.60;;;9.70;99.90;;;;;;4752208;30;20052;-87
2022/04/05 15:47:08;;;;;;;8.52;3.20;;;10.00;99.90;;;;;;4748116;30;20044;-84
2022/04/05 15:50:08;;;;;;;;;;;;;;;;;;;;;
2022/04/05 15:53:10;;;;;;;9.35;2.40;;;10.10;99.90;;;;;;4735742;30;20473;-84
2022/04/05 15:56:13;;;;;;;7.18;3.22;;;10.00;99.90;;;;;;4743818;30;20047;-85
2022/04/05 15:59:22;;;;;;;11.38;3.50;;;10.10;99.90;;;;;;4751743;30;20056;-86
2022/04/05 16:02:39;;;;;;;9.85;2.97;;;10.10;99.90;;;;;;4751681;30;20539;-85
2022/04/05 16:06:03;;;;;;;;;;;;;;;;;;;;;
2022/04/05 16:09:11;;;;;;;11.35;3.33;;;10.10;99.90;;;;;;4751263;30;20148;-84
2022/04/05 16:12:38;;;;;;;10.90;3.42;;;10.10;99.90;;;;;;4744957;30;20127;-85
2022/04/05 16:15:40;;;;;;;10.30;3.20;;;10.10;99.90;;;;;;4733700;30;20418;-83
2022/04/05 16:18:44;;;;;;;10.93;2.72;;;10.00;99.90;;;;;;4749468;30;20094;-84
2022/04/05 16:21:47;;;;;;;7.68;2.80;;;10.10;99.90;;;;;;4744005;30;20048;-84
2022/04/05 16:29:42;;;;;;;9.38;2.33;;;10.00;99.90;;;;;;4751281;30;20070;-85
2022/04/05 16:32:43;;;;;;;6.38;2.35;;;10.00;99.90;;;;;;4746186;30;20076;-86
2022/04/05 16:35:53;;;;;;;8.50;2.60;;;10.00;99.90;;;;;;4751230;30;20091;-84
2022/04/05 16:39:00;;;;;;;11.02;2.58;;;10.00;99.90;;;;;;4742567;30;20429;-85
2022/04/05 16:41:57;;;;;;;9.23;2.25;;;10.60;99.90;;;;;;4743404;30;20052;-85
2022/04/05 16:45:29;;;;;;;;;;;;;;;;;;;;;
2022/04/05 16:48:34;;;;;;;12.20;4.03;;;10.30;99.90;;;;;;4734908;30;20122;-83
2022/04/05 16:51:41;;;;;;;11.65;2.55;;;9.70;99.90;;;;;;4734439;30;20049;-83
2022/04/05 16:54:45;;;;;;;6.28;2.17;;;9.80;99.90;;;;;;4745782;30;20059;-83
2022/04/05 16:57:43;;;;;;;8.13;2.42;;;9.70;99.90;;;;;;4743903;30;20106;-84
2022/04/05 17:00:42;;;;;;;9.35;3.25;;;10.20;99.90;;;;;;4751076;30;20044;-83
2022/04/05 17:03:40;;;;;;;12.52;3.25;;;9.70;99.90;;;;;;4734351;30;20119;-84
2022/04/05 17:06:40;;;;;;;7.93;2.80;;;9.80;99.90;;;;;;4734389;30;20107;-83
2022/04/05 17:09:38;;;;;;;8.80;2.38;;;9.60;99.90;;;;;;4736729;30;20067;-84
2022/04/05 17:12:41;;;;;;;8.68;2.72;;;9.50;99.90;;;;;;4737201;30;20064;-84
2022/04/05 17:15:41;;;;;;;14.82;3.67;;;9.60;99.90;;;;;;4754045;30;20052;-84
2022/04/05 17:22:12;;;;;;;;;;;;;;;;;;;;;
2022/04/05 17:25:42;;;;;;;8.10;2.75;;;9.40;99.90;;;;;;4769892;30;20117;-84
2022/04/05 17:28:51;;;;;;;;;;;;;;;;;;;;;
2022/04/05 17:35:29;;;;;;;10.43;3.08;;;9.10;99.90;;;;;;4766989;30;20073;-84
2022/04/05 17:38:53;;;;;;;5.72;2.88;;;9.30;99.90;;;;;;4769719;30;20129;-84
2022/04/05 17:41:53;;;;;;;5.03;2.40;;;9.30;99.90;;;;;;4769626;30;20047;-87
2022/04/05 17:44:50;;;;;;;5.45;3.72;;;9.20;99.90;;;;;;4753889;30;20086;-85
2022/04/05 17:47:54;;;;;;;14.00;2.85;;;9.20;99.90;;;;;;4753991;30;20123;-84
2022/04/05 17:50:50;;;;;;;15.32;3.15;;;9.20;99.90;;;;;;4768350;30;20060;-83
2022/04/05 17:53:54;;;;;;;5.60;2.42;;;9.20;99.90;;;;;;4754452;30;20063;-84
2022/04/05 17:56:59;;;;;;;7.82;2.80;;;9.10;99.90;;;;;;4768635;30;20566;-83
2022/04/05 17:59:52;;;;;;;7.65;2.28;;;9.10;99.90;;;;;;4753009;30;20044;-85
2022/04/05 18:02:52;;;;;;;5.00;2.22;;;9.10;99.90;;;;;;4736961;30;20103;-84
2022/04/05 18:05:49;;;;;;;5.80;2.55;;;9.10;99.90;;;;;;4737392;30;20080;-85
2022/04/05 18:08:50;;;;;;;7.88;3.00;;;9.10;99.90;;;;;;4737688;30;20052;-85
2022/04/05 18:11:44;;;;;;;5.88;2.25;;;9.10;99.90;;;;;;4736057;30;20598;-84
2022/04/05 18:15:09;;;;;;;7.18;2.97;;;9.00;99.90;;;;;;4751854;30;20139;-85
2022/04/05 18:18:10;;;;;;;9.82;2.90;;;9.40;99.90;;;;;;4737059;30;20056;-84
2022/04/05 18:21:11;;;;;;;10.60;3.20;;;9.00;99.90;;;;;;4744477;30;20117;-85
2022/04/05 18:24:00;;;;;;;8.80;2.15;;;8.50;99.90;;;;;;4728442;30;20064;-84
2022/04/05 18:26:52;;;;;;;10.05;2.63;;;9.00;99.90;;;;;;4736353;30;20067;-85
2022/04/05 18:29:53;;;;;;;8.23;2.20;;;9.00;99.90;;;;;;4736238;30;20095;-85
2022/04/05 18:32:58;;;;;;;5.20;2.05;;;9.00;99.90;;;;;;4751535;30;20096;-86
2022/04/05 18:39:50;;;;;;;;;;;;;;;;;;;;;
2022/04/05 18:43:47;;;;;;;;;;;;;;;;;;;;;
2022/04/05 18:47:34;;;;;;;;;;;;;;;;;;;;;
2022/04/05 18:54:43;;;;;;;8.13;2.40;;;8.80;99.90;;;;;;4665975;30;20551;-85
2022/04/05 19:02:18;;;;;;;;;;;;;;;;;;;;;
2022/04/05 19:05:39;;;;;;;10.48;3.20;;;8.80;99.90;;;;;;4627969;30;20442;-84
2022/04/05 19:08:36;;;;;;;;;;;;;;;;;;;;;
2022/04/05 19:11:50;;;;;;;5.50;2.20;;;8.80;99.90;;;;;;4626378;30;20074;-84
2022/04/05 19:14:35;;;;;;;6.03;2.35;;;8.70;99.90;;;;;;4615044;31;20055;-84
2022/04/05 19:17:06;;;;;;;8.68;3.28;;;8.60;99.90;;;;;;4630113;30;20055;-85
2022/04/05 19:19:41;;;;;;;8.00;2.88;;;8.60;99.90;;;;;;4619873;30;20062;-84
2022/04/05 19:22:16;;;;;;;7.78;2.45;;;8.60;99.90;;;;;;4613477;31;20067;-84
2022/04/05 19:28:27;;;;;;;12.82;3.70;;;8.70;99.90;;;;;;4595846;31;20143;-84